createdAt,value
2022-12-08T00:01:39.556Z,70.76
2022-12-08T00:04:12.865Z,70.61
2022-12-08T00:06:50.529Z,70.57
2022-12-08T00:17:14.505Z,70.51
2022-12-08T00:19:54.568Z,70.47
2022-12-08T00:22:29.769Z,70.72
2022-12-08T00:25:03.793Z,70.67
2022-12-08T00:27:37.844Z,70.69
2022-12-08T00:30:15.563Z,70.55
2022-12-08T00:32:48.808Z,70.78
2022-12-08T00:45:45.519Z,70.55
2022-12-08T00:48:25.576Z,70.69
2022-12-08T00:50:59.078Z,70.72
2022-12-08T00:53:32.552Z,70.49
2022-12-08T00:56:06.396Z,70.49
2022-12-08T01:12:21.522Z,70.42
2022-12-08T01:15:02.113Z,70.45
2022-12-08T01:17:43.504Z,70.70
2022-12-08T01:20:17.017Z,70.67
2022-12-08T01:22:50.500Z,70.49
2022-12-08T01:25:23.904Z,70.58
2022-12-08T01:28:00.518Z,70.56
2022-12-08T01:37:52.506Z,70.65
2022-12-08T01:40:32.528Z,70.57
2022-12-08T01:43:12.718Z,70.41
2022-12-08T01:45:53.545Z,70.60
2022-12-08T01:48:27.639Z,70.38
2022-12-08T01:51:02.541Z,70.34
2022-12-08T02:04:20.224Z,70.42
2022-12-08T02:06:54.985Z,70.44
2022-12-08T02:09:28.493Z,70.55
2022-12-08T02:12:01.699Z,70.51
2022-12-08T02:14:42.512Z,70.38
2022-12-08T02:17:47.830Z,70.51
2022-12-08T02:31:13.523Z,70.47
2022-12-08T02:34:18.544Z,70.60
2022-12-08T02:37:06.356Z,70.33
2022-12-08T02:39:59.488Z,70.60
2022-12-08T02:42:42.989Z,70.26
2022-12-08T02:45:32.512Z,70.27
2022-12-08T02:59:17.485Z,70.09
2022-12-08T03:02:33.053Z,70.17
2022-12-08T03:05:29.731Z,70.28
2022-12-08T03:08:13.887Z,70.43
2022-12-08T03:11:05.505Z,70.46
2022-12-08T03:24:32.508Z,70.39
2022-12-08T03:27:10.199Z,70.32
2022-12-08T03:29:50.497Z,70.28
2022-12-08T03:32:33.932Z,70.46
2022-12-08T03:35:20.464Z,70.31
2022-12-08T03:38:03.520Z,70.49
2022-12-08T03:51:16.482Z,70.41
2022-12-08T03:53:56.478Z,70.43
2022-12-08T03:56:33.163Z,70.19
2022-12-08T03:59:14.474Z,70.18
2022-12-08T04:01:47.879Z,70.38
2022-12-08T04:04:21.488Z,70.22
2022-12-08T04:06:56.875Z,70.24
2022-12-08T04:19:45.441Z,70.20
2022-12-08T04:22:27.498Z,70.05
2022-12-08T04:25:00.891Z,70.03
2022-12-08T04:27:34.535Z,70.03
2022-12-08T04:30:10.415Z,69.97
2022-12-08T04:32:47.375Z,70.00
2022-12-08T04:45:59.460Z,70.12
2022-12-08T04:48:32.784Z,70.05
2022-12-08T04:51:06.463Z,70.10
2022-12-08T04:53:44.841Z,69.99
2022-12-08T04:56:26.512Z,70.06
2022-12-08T05:13:04.420Z,69.99
2022-12-08T05:15:44.465Z,70.23
2022-12-08T05:18:17.887Z,69.98
2022-12-08T05:20:51.489Z,69.95
2022-12-08T05:23:24.776Z,69.96
2022-12-08T05:26:03.446Z,70.22
2022-12-08T05:39:18.462Z,69.90
2022-12-08T05:41:51.740Z,70.02
2022-12-08T05:44:25.444Z,69.97
2022-12-08T05:46:58.779Z,70.12
2022-12-08T05:49:32.457Z,70.16
2022-12-08T05:52:06.227Z,70.07
2022-12-08T06:05:01.409Z,70.01
2022-12-08T06:07:41.503Z,69.98
2022-12-08T06:10:14.774Z,70.24
2022-12-08T06:12:48.720Z,70.02
2022-12-08T06:15:21.793Z,69.98
2022-12-08T06:17:55.453Z,70.13
2022-12-08T06:31:46.474Z,70.18
2022-12-08T06:34:19.685Z,70.25
2022-12-08T06:36:46.405Z,70.49
2022-12-08T06:39:26.472Z,70.45
2022-12-08T06:42:00.355Z,70.19
2022-12-08T06:44:33.448Z,70.34
2022-12-08T06:47:08.624Z,70.53
2022-12-08T06:59:56.418Z,70.50
2022-12-08T07:02:38.452Z,70.41
2022-12-08T07:05:11.700Z,70.27
2022-12-08T07:07:45.494Z,70.35
2022-12-08T07:10:18.899Z,70.21
2022-12-08T07:12:53.019Z,70.30
2022-12-08T07:26:07.490Z,70.44
2022-12-08T07:28:42.483Z,70.21
2022-12-08T07:33:56.681Z,70.25
2022-12-08T07:36:24.256Z,70.27
2022-12-08T07:39:04.458Z,70.28
2022-12-08T07:41:39.623Z,70.22
2022-12-08T07:54:27.444Z,70.07
2022-12-08T07:57:09.485Z,70.17
2022-12-08T07:59:42.712Z,70.21
2022-12-08T08:02:25.771Z,70.01
2022-12-08T08:04:59.746Z,70.25
2022-12-08T08:07:33.418Z,69.83
2022-12-08T08:20:45.525Z,70.12
2022-12-08T08:23:18.649Z,70.27
2022-12-08T08:25:45.371Z,70.34
2022-12-08T08:28:25.409Z,70.35
2022-12-08T08:31:02.283Z,70.13
2022-12-08T08:47:17.424Z,70.60
2022-12-08T08:49:50.767Z,70.50
2022-12-08T08:52:24.456Z,70.52
2022-12-08T08:55:00.919Z,70.65
2022-12-08T08:57:34.442Z,70.58
2022-12-08T09:00:12.592Z,70.38
2022-12-08T09:02:47.430Z,70.60
2022-12-08T09:12:33.382Z,70.22
2022-12-08T09:15:15.501Z,70.19
2022-12-08T09:17:50.740Z,70.26
2022-12-08T09:20:24.434Z,70.47
2022-12-08T09:22:58.477Z,70.29
2022-12-08T09:25:31.429Z,70.22
2022-12-08T09:28:05.461Z,70.24
2022-12-08T09:40:58.393Z,70.34
2022-12-08T09:44:09.433Z,70.08
2022-12-08T09:46:43.861Z,70.09
2022-12-08T09:49:24.429Z,70.14
2022-12-08T09:51:59.028Z,70.13
2022-12-08T10:05:39.369Z,69.83
2022-12-08T10:08:27.518Z,69.52
2022-12-08T10:11:13.707Z,69.56
2022-12-08T10:14:06.414Z,69.32
2022-12-08T10:16:45.558Z,69.46
2022-12-08T10:19:29.130Z,69.38
2022-12-08T10:22:19.925Z,69.27
2022-12-08T10:32:30.413Z,69.09
2022-12-08T10:35:08.261Z,69.16
2022-12-08T10:38:02.390Z,69.13
2022-12-08T10:40:42.132Z,69.10
2022-12-08T10:43:30.381Z,69.26
2022-12-08T10:46:18.179Z,69.24
2022-12-08T10:59:24.372Z,69.14
2022-12-08T11:02:06.509Z,68.81
2022-12-08T11:04:39.692Z,68.82
2022-12-08T11:07:16.412Z,68.53
2022-12-08T11:09:55.501Z,68.06
2022-12-08T11:12:36.416Z,67.95
2022-12-08T11:26:10.387Z,67.61
2022-12-08T11:28:43.960Z,67.02
2022-12-08T11:31:33.442Z,67.04
2022-12-08T11:34:20.075Z,66.55
2022-12-08T11:37:02.384Z,66.81
2022-12-08T11:39:44.161Z,66.80
2022-12-08T11:42:37.813Z,66.61
2022-12-08T11:52:49.395Z,66.22
2022-12-08T11:55:45.193Z,65.61
2022-12-08T11:58:31.289Z,65.38
2022-12-08T12:01:11.373Z,65.32
2022-12-08T12:03:54.644Z,65.25
2022-12-08T12:07:26.502Z,65.35
2022-12-08T12:20:46.624Z,65.43
2022-12-08T12:23:29.023Z,65.22
2022-12-08T12:26:14.380Z,65.00
2022-12-08T12:28:54.913Z,65.35
2022-12-08T12:31:40.380Z,65.35
2022-12-08T12:48:31.328Z,65.87
2022-12-08T12:51:48.389Z,65.30
2022-12-08T12:54:24.712Z,65.31
2022-12-08T12:57:01.397Z,65.21
2022-12-08T12:59:46.161Z,65.10
2022-12-08T13:02:36.440Z,64.93
2022-12-08T13:13:11.333Z,65.30
2022-12-08T13:16:09.971Z,64.90
2022-12-08T13:18:52.171Z,64.89
2022-12-08T13:21:43.076Z,64.85
2022-12-08T13:24:31.708Z,64.78
2022-12-08T13:27:39.374Z,65.12
2022-12-08T13:40:53.349Z,65.33
2022-12-08T13:43:47.706Z,65.44
2022-12-08T14:06:38.408Z,65.35
2022-12-08T14:09:16.893Z,65.05
2022-12-08T14:12:04.346Z,65.17
2022-12-08T14:17:44.373Z,65.19
2022-12-08T14:20:23.874Z,65.27
2022-12-08T14:23:07.427Z,65.33
2022-12-08T14:33:17.310Z,65.78
2022-12-08T14:36:00.399Z,65.79
2022-12-08T14:38:35.809Z,65.81
2022-12-08T14:41:12.364Z,65.94
2022-12-08T14:43:45.595Z,65.88
2022-12-08T14:46:28.414Z,66.04
2022-12-08T15:00:00.371Z,66.35
2022-12-08T15:02:33.780Z,66.04
2022-12-08T15:05:16.404Z,66.11
2022-12-08T15:07:52.806Z,66.29
2022-12-08T15:10:35.436Z,66.15
2022-12-08T15:13:22.137Z,66.14
2022-12-08T15:26:56.316Z,66.27
2022-12-08T15:29:37.325Z,66.28
2022-12-08T15:32:11.264Z,66.21
2022-12-08T15:34:44.336Z,66.18
2022-12-08T15:37:22.588Z,66.22
2022-12-08T15:40:02.821Z,65.98
2022-12-08T15:42:38.555Z,66.15
2022-12-08T15:55:27.313Z,66.11
2022-12-08T16:01:02.691Z,66.09
2022-12-08T16:07:12.820Z,66.35
2022-12-08T16:20:24.292Z,66.29
2022-12-08T16:23:26.665Z,66.44
2022-12-08T16:26:21.879Z,66.31
2022-12-08T16:29:10.095Z,66.38
2022-12-08T16:31:43.654Z,66.31
2022-12-08T16:48:01.334Z,66.17
2022-12-08T16:50:35.206Z,66.05
2022-12-08T16:53:12.325Z,65.86
2022-12-08T16:55:47.225Z,66.16
2022-12-08T16:58:20.385Z,66.29
2022-12-08T17:00:53.766Z,66.05
2022-12-08T17:03:29.324Z,66.13
2022-12-08T17:13:47.285Z,66.16
2022-12-08T17:16:28.386Z,66.13
2022-12-08T17:19:03.744Z,66.27
2022-12-08T17:21:37.381Z,65.98
2022-12-08T17:24:11.061Z,66.15
2022-12-08T17:26:44.311Z,65.97
2022-12-08T17:40:28.551Z,66.07
2022-12-08T17:43:01.556Z,65.99
2022-12-08T17:45:35.348Z,65.97
2022-12-08T17:48:08.707Z,66.05
2022-12-08T17:50:45.308Z,66.15
2022-12-08T17:53:18.632Z,66.09
2022-12-08T17:56:01.384Z,66.17
2022-12-08T18:09:13.367Z,66.48
2022-12-08T18:11:48.762Z,66.42
2022-12-08T18:14:22.317Z,66.58
2022-12-08T18:16:55.741Z,66.58
2022-12-08T18:19:29.297Z,66.27
2022-12-08T18:22:03.011Z,66.31
2022-12-08T18:34:53.289Z,66.43
2022-12-08T18:37:34.376Z,66.33
2022-12-08T18:40:10.158Z,66.21
2022-12-08T18:42:43.323Z,66.29
2022-12-08T18:45:22.049Z,66.24
2022-12-08T18:48:02.315Z,66.49
2022-12-08T19:01:19.346Z,66.46
2022-12-08T19:04:20.052Z,66.34
2022-12-08T19:06:52.280Z,66.39
2022-12-08T19:09:26.467Z,66.41
2022-12-08T19:12:00.360Z,66.27
2022-12-08T19:14:34.175Z,66.27
2022-12-08T19:17:09.316Z,66.29
2022-12-08T19:27:26.276Z,66.14
2022-12-08T19:30:06.532Z,66.28
2022-12-08T19:32:42.514Z,66.19
2022-12-08T19:35:16.294Z,66.00
2022-12-08T19:37:49.567Z,66.14
2022-12-08T19:40:24.576Z,66.16
2022-12-08T19:42:58.255Z,66.16
2022-12-08T19:55:54.261Z,66.11
2022-12-08T19:58:34.272Z,66.21
2022-12-08T20:01:07.714Z,66.07
2022-12-08T20:03:41.327Z,66.07
2022-12-08T20:06:17.777Z,65.92
2022-12-08T20:22:49.343Z,65.88
2022-12-08T20:25:29.511Z,65.80
2022-12-08T20:28:09.333Z,65.84
2022-12-08T20:30:43.118Z,65.86
2022-12-08T20:33:19.305Z,65.87
2022-12-08T20:35:59.285Z,65.78
2022-12-08T20:48:12.247Z,66.06
2022-12-08T20:50:52.317Z,66.34
2022-12-08T20:53:25.679Z,66.24
2022-12-08T20:56:01.391Z,66.05
2022-12-08T20:58:34.537Z,66.15
2022-12-08T21:01:14.414Z,66.13
2022-12-08T21:14:29.408Z,66.05
2022-12-08T21:17:02.843Z,65.99
2022-12-08T21:19:36.268Z,66.17
2022-12-08T21:22:10.141Z,66.04
2022-12-08T21:24:43.305Z,66.29
2022-12-08T21:27:16.743Z,66.22
2022-12-08T21:43:32.286Z,66.16
2022-12-08T21:46:05.949Z,66.13
2022-12-08T21:48:40.822Z,66.28
2022-12-08T21:51:14.558Z,66.32
2022-12-08T21:53:48.450Z,66.37
2022-12-08T21:56:22.003Z,66.24
2022-12-08T22:09:12.380Z,66.19
2022-12-08T22:11:52.402Z,66.13
2022-12-08T22:14:25.656Z,66.21
2022-12-08T22:16:59.330Z,66.39
2022-12-08T22:19:33.058Z,66.47
2022-12-08T22:22:06.405Z,66.42
2022-12-08T22:35:18.240Z,66.63
2022-12-08T22:37:51.640Z,66.59
2022-12-08T22:40:25.255Z,66.58
2022-12-08T22:42:58.515Z,66.62
2022-12-08T22:45:32.359Z,66.67
2022-12-08T22:48:05.955Z,66.65
2022-12-08T23:01:32.253Z,66.66
2022-12-08T23:04:17.951Z,66.88
2022-12-08T23:06:51.695Z,66.86
2022-12-08T23:09:25.309Z,66.79
2022-12-08T23:11:58.694Z,66.88
2022-12-08T23:14:32.354Z,66.68
2022-12-08T23:17:07.564Z,66.91
2022-12-08T23:29:56.216Z,66.74
2022-12-08T23:32:38.511Z,66.82
2022-12-08T23:35:11.512Z,67.03
2022-12-08T23:37:45.382Z,66.79
2022-12-08T23:40:19.197Z,66.89
2022-12-08T23:42:52.245Z,67.04
2022-12-08T23:56:09.636Z,67.16
2022-12-08T23:58:43.652Z,67.14
